createdAt,value
2022-08-17T00:01:32.763Z,76.60
2022-08-17T00:04:19.531Z,76.83
2022-08-17T00:06:49.076Z,76.98
2022-08-17T00:09:18.873Z,77.11
2022-08-17T00:12:35.009Z,77.13
2022-08-17T00:14:35.091Z,77.28
2022-08-17T00:17:03.845Z,77.40
2022-08-17T00:19:32.605Z,77.45
2022-08-17T00:22:32.650Z,77.69
2022-08-17T00:24:47.530Z,77.76
2022-08-17T00:27:14.171Z,77.73
2022-08-17T00:29:41.228Z,77.93
2022-08-17T00:33:12.615Z,78.19
2022-08-17T00:34:55.038Z,78.55
2022-08-17T00:37:22.296Z,78.62
2022-08-17T00:39:48.912Z,78.54
2022-08-17T00:42:17.947Z,78.42
2022-08-17T00:44:44.975Z,78.01
2022-08-17T00:47:11.547Z,77.86
2022-08-17T00:49:38.177Z,77.76
2022-08-17T00:52:12.393Z,77.73
2022-08-17T00:54:43.622Z,77.62
2022-08-17T00:57:15.621Z,77.53
2022-08-17T01:00:00.620Z,77.44
2022-08-17T01:02:34.357Z,77.22
2022-08-17T01:05:10.249Z,77.47
2022-08-17T01:07:37.915Z,77.50
2022-08-17T01:10:08.638Z,77.32
2022-08-17T01:12:56.680Z,77.81
2022-08-17T01:15:23.579Z,80.67
2022-08-17T01:17:50.561Z,82.27
2022-08-17T01:20:17.452Z,83.23
2022-08-17T01:22:44.383Z,82.52
2022-08-17T01:25:12.641Z,82.47
2022-08-17T01:27:40.713Z,81.78
2022-08-17T01:30:57.214Z,82.29
2022-08-17T01:32:57.114Z,82.20
2022-08-17T01:35:24.121Z,81.04
2022-08-17T01:37:50.673Z,80.71
2022-08-17T01:40:33.112Z,80.28
2022-08-17T01:43:14.536Z,80.35
2022-08-17T01:45:45.294Z,80.13
2022-08-17T01:48:12.852Z,80.22
2022-08-17T01:50:42.413Z,80.96
2022-08-17T01:53:34.594Z,80.87
2022-08-17T01:56:13.318Z,79.08
2022-08-17T01:58:41.821Z,77.63
2022-08-17T02:01:10.049Z,76.36
2022-08-17T02:03:38.503Z,75.58
2022-08-17T02:06:06.480Z,76.11
2022-08-17T02:09:02.566Z,76.11
2022-08-17T02:11:32.717Z,76.43
2022-08-17T02:14:03.404Z,76.23
2022-08-17T02:16:37.075Z,76.68
2022-08-17T02:19:10.266Z,75.98
2022-08-17T02:21:38.793Z,76.29
2022-08-17T02:24:08.589Z,75.95
2022-08-17T02:26:36.487Z,76.84
2022-08-17T02:29:04.300Z,76.80
2022-08-17T02:31:31.134Z,76.93
2022-08-17T02:34:04.656Z,76.84
2022-08-17T02:36:34.171Z,77.47
2022-08-17T02:39:09.506Z,77.45
2022-08-17T02:41:36.856Z,77.43
2022-08-17T02:44:04.371Z,76.77
2022-08-17T02:46:31.080Z,76.54
2022-08-17T02:48:58.322Z,77.29
2022-08-17T02:51:26.409Z,76.39
2022-08-17T02:53:53.093Z,76.81
2022-08-17T02:56:39.854Z,77.17
2022-08-17T02:59:06.639Z,77.81
2022-08-17T03:01:33.251Z,77.76
2022-08-17T03:03:59.947Z,77.87
2022-08-17T03:06:28.091Z,77.90
2022-08-17T03:08:54.645Z,79.06
2022-08-17T03:11:21.359Z,79.98
2022-08-17T03:13:47.933Z,80.63
2022-08-17T03:16:14.570Z,80.93
2022-08-17T03:18:41.261Z,81.61
2022-08-17T03:21:09.517Z,82.39
2022-08-17T03:23:41.104Z,82.91
2022-08-17T03:26:13.490Z,82.85
2022-08-17T03:28:42.254Z,82.57
2022-08-17T03:31:09.031Z,82.75
2022-08-17T03:33:35.747Z,83.03
2022-08-17T03:36:02.311Z,82.55
2022-08-17T03:38:28.819Z,82.25
2022-08-17T03:41:06.539Z,82.46
2022-08-17T03:43:34.504Z,82.52
2022-08-17T03:46:27.883Z,82.58
2022-08-17T03:49:15.690Z,82.73
2022-08-17T03:52:00.860Z,82.42
2022-08-17T03:54:45.969Z,82.77
2022-08-17T03:57:13.181Z,82.75
2022-08-17T03:59:40.861Z,82.75
2022-08-17T04:02:21.476Z,83.40
2022-08-17T04:04:50.962Z,83.74
2022-08-17T04:07:22.999Z,84.51
2022-08-17T04:09:49.812Z,84.87
2022-08-17T04:12:18.545Z,84.92
2022-08-17T04:14:53.365Z,84.70
2022-08-17T04:17:27.251Z,85.07
2022-08-17T04:19:54.676Z,85.33
2022-08-17T04:22:32.918Z,85.73
2022-08-17T04:25:06.616Z,85.45
2022-08-17T04:27:33.269Z,85.74
2022-08-17T04:30:00.471Z,85.57
2022-08-17T04:33:04.252Z,85.92
2022-08-17T04:35:18.529Z,86.06
2022-08-17T04:37:45.381Z,86.29
2022-08-17T04:40:30.863Z,86.09
2022-08-17T04:43:05.275Z,85.72
2022-08-17T04:45:32.630Z,85.36
2022-08-17T04:48:00.764Z,85.79
2022-08-17T04:50:28.224Z,85.59
2022-08-17T04:52:55.192Z,84.80
2022-08-17T04:55:22.149Z,85.14
2022-08-17T04:57:48.795Z,85.07
2022-08-17T05:00:15.726Z,85.18
2022-08-17T05:02:50.662Z,84.17
2022-08-17T05:05:27.514Z,83.92
2022-08-17T05:07:57.195Z,84.24
2022-08-17T05:10:26.632Z,84.10
2022-08-17T05:13:08.206Z,84.36
2022-08-17T05:15:38.869Z,84.21
2022-08-17T05:18:12.528Z,84.03
2022-08-17T05:20:40.176Z,83.74
2022-08-17T05:23:10.775Z,83.63
2022-08-17T05:25:47.410Z,83.74
2022-08-17T05:28:16.733Z,83.36
2022-08-17T05:30:44.781Z,84.32
2022-08-17T05:33:21.470Z,84.42
2022-08-17T05:35:51.063Z,83.96
2022-08-17T05:38:20.327Z,83.87
2022-08-17T05:40:47.504Z,83.94
2022-08-17T05:43:29.898Z,82.47
2022-08-17T05:46:23.441Z,82.73
2022-08-17T05:49:12.538Z,82.32
2022-08-17T05:52:06.909Z,82.11
2022-08-17T05:55:00.539Z,82.40
2022-08-17T05:57:39.934Z,81.85
2022-08-17T06:00:20.152Z,81.32
2022-08-17T06:03:24.253Z,80.74
2022-08-17T06:06:09.324Z,80.10
2022-08-17T06:08:58.884Z,79.32
2022-08-17T06:11:42.075Z,79.49
2022-08-17T06:14:13.669Z,80.04
2022-08-17T06:16:49.369Z,79.62
2022-08-17T06:19:20.317Z,79.62
2022-08-17T06:21:50.107Z,79.48
2022-08-17T06:24:39.352Z,79.44
2022-08-17T06:27:19.809Z,79.61
2022-08-17T06:30:04.134Z,79.38
2022-08-17T06:32:32.060Z,79.37
2022-08-17T06:35:00.858Z,79.26
2022-08-17T06:37:49.942Z,79.81
2022-08-17T06:40:56.234Z,78.85
2022-08-17T06:43:26.253Z,79.10
2022-08-17T06:46:31.685Z,79.44
2022-08-17T06:49:10.563Z,79.65
2022-08-17T06:51:43.275Z,79.27
2022-08-17T06:54:38.567Z,79.15
2022-08-17T06:57:14.809Z,78.41
2022-08-17T06:59:55.456Z,78.90
2022-08-17T07:02:53.007Z,78.40
2022-08-17T07:05:23.864Z,78.19
2022-08-17T07:08:24.326Z,77.92
2022-08-17T07:11:03.103Z,77.59
2022-08-17T07:13:57.031Z,78.23
2022-08-17T07:16:41.230Z,77.32
2022-08-17T07:19:10.911Z,77.31
2022-08-17T07:21:52.310Z,77.39
2022-08-17T07:24:37.215Z,77.23
2022-08-17T07:27:06.436Z,77.26
2022-08-17T07:29:38.028Z,75.87
2022-08-17T07:32:04.969Z,75.34
2022-08-17T07:34:51.889Z,75.55
2022-08-17T07:37:19.489Z,74.85
2022-08-17T07:40:14.753Z,74.96
2022-08-17T07:42:34.337Z,74.58
2022-08-17T07:45:22.862Z,75.31
2022-08-17T07:48:10.433Z,75.24
2022-08-17T07:50:42.425Z,75.47
2022-08-17T07:53:23.326Z,76.60
2022-08-17T07:55:52.400Z,76.74
2022-08-17T07:58:23.442Z,76.51
2022-08-17T08:01:11.925Z,76.93
2022-08-17T08:03:42.272Z,77.35
2022-08-17T08:06:22.699Z,77.51
2022-08-17T08:08:56.467Z,77.57
2022-08-17T08:11:35.642Z,77.46
2022-08-17T08:14:29.817Z,77.77
2022-08-17T08:17:09.346Z,78.58
2022-08-17T08:19:36.230Z,78.77
2022-08-17T08:22:10.318Z,78.84
2022-08-17T08:25:02.933Z,78.21
2022-08-17T08:27:48.659Z,78.37
2022-08-17T08:30:21.523Z,77.58
2022-08-17T08:33:00.457Z,77.93
2022-08-17T08:35:48.510Z,77.91
2022-08-17T08:38:29.240Z,78.88
2022-08-17T08:41:30.458Z,77.99
2022-08-17T08:44:23.793Z,77.22
2022-08-17T08:47:43.198Z,76.83
2022-08-17T08:50:55.961Z,77.25
2022-08-17T08:53:32.607Z,76.45
2022-08-17T08:56:06.255Z,76.69
2022-08-17T08:58:41.671Z,75.89
2022-08-17T09:01:26.241Z,75.97
2022-08-17T09:04:25.457Z,75.85
2022-08-17T09:07:18.901Z,74.32
2022-08-17T09:10:07.618Z,74.14
2022-08-17T09:12:50.933Z,72.79
2022-08-17T09:15:29.808Z,71.21
2022-08-17T09:19:00.906Z,70.10
2022-08-17T09:20:58.845Z,73.11
2022-08-17T09:23:49.475Z,70.93
2022-08-17T09:26:58.972Z,71.34
2022-08-17T09:29:29.705Z,71.09
2022-08-17T09:31:59.688Z,71.60
2022-08-17T09:34:47.093Z,71.68
2022-08-17T09:37:18.189Z,71.67
2022-08-17T09:40:24.385Z,73.50
2022-08-17T09:43:11.415Z,72.40
2022-08-17T09:45:45.177Z,73.17
2022-08-17T09:48:20.770Z,73.54
2022-08-17T09:51:08.999Z,72.04
2022-08-17T09:53:38.047Z,72.00
2022-08-17T09:56:32.674Z,74.20
2022-08-17T09:59:02.347Z,74.73
2022-08-17T10:01:31.834Z,73.16
2022-08-17T10:04:07.835Z,72.09
2022-08-17T10:06:50.402Z,68.34
2022-08-17T10:09:42.602Z,66.34
2022-08-17T10:12:28.296Z,66.01
2022-08-17T10:15:07.976Z,65.92
2022-08-17T10:17:55.563Z,64.49
2022-08-17T10:20:34.545Z,64.41
2022-08-17T10:23:25.711Z,64.33
2022-08-17T10:26:04.615Z,65.04
2022-08-17T10:28:44.289Z,67.11
2022-08-17T10:31:34.201Z,66.57
2022-08-17T10:34:07.450Z,63.36
2022-08-17T10:36:37.897Z,65.10
2022-08-17T10:39:27.234Z,65.60
2022-08-17T10:41:59.166Z,66.77
2022-08-17T10:44:51.285Z,66.17
2022-08-17T10:47:19.327Z,66.64
2022-08-17T10:49:54.158Z,66.79
2022-08-17T10:52:21.806Z,67.62
2022-08-17T10:54:51.222Z,67.82
2022-08-17T10:57:27.461Z,67.53
2022-08-17T10:59:56.361Z,67.25
2022-08-17T11:02:28.401Z,66.06
2022-08-17T11:05:00.664Z,68.90
2022-08-17T11:07:49.342Z,72.03
2022-08-17T11:10:42.247Z,71.93
2022-08-17T11:13:14.567Z,73.03
2022-08-17T11:15:50.575Z,73.06
2022-08-17T11:18:55.173Z,73.97
2022-08-17T11:21:24.348Z,75.30
2022-08-17T11:24:26.370Z,74.43
2022-08-17T11:27:09.149Z,75.91
2022-08-17T11:29:53.093Z,75.73
2022-08-17T11:32:54.753Z,76.79
2022-08-17T11:35:21.886Z,78.61
2022-08-17T11:38:29.363Z,78.60
2022-08-17T11:41:17.867Z,78.76
2022-08-17T11:44:17.234Z,78.54
2022-08-17T11:47:08.965Z,80.19
2022-08-17T11:50:00.297Z,80.45
2022-08-17T11:52:43.552Z,80.33
2022-08-17T11:55:39.325Z,82.31
2022-08-17T11:58:37.309Z,80.79
2022-08-17T12:01:40.225Z,81.73
2022-08-17T12:04:22.717Z,81.13
2022-08-17T12:06:54.930Z,81.51
2022-08-17T12:09:25.100Z,80.94
2022-08-17T12:12:13.035Z,79.29
2022-08-17T12:17:52.227Z,80.50
2022-08-17T12:20:28.544Z,81.10
2022-08-17T12:23:16.917Z,79.42
2022-08-17T12:25:58.183Z,79.63
2022-08-17T12:28:26.773Z,79.40
2022-08-17T12:30:54.226Z,80.69
2022-08-17T12:33:25.618Z,80.73
2022-08-17T12:36:05.398Z,79.71
2022-08-17T12:38:38.085Z,79.13
2022-08-17T12:41:26.376Z,79.81
2022-08-17T12:44:03.860Z,79.13
2022-08-17T12:46:34.871Z,79.22
2022-08-17T12:49:12.753Z,79.64
2022-08-17T12:51:44.519Z,79.60
2022-08-17T12:54:36.616Z,79.51
2022-08-17T12:57:12.605Z,80.97
2022-08-17T12:59:46.027Z,81.32
2022-08-17T13:03:00.422Z,79.83
2022-08-17T13:05:36.557Z,80.93
2022-08-17T13:08:29.396Z,81.12
2022-08-17T13:11:00.859Z,80.70
2022-08-17T13:13:33.435Z,81.20
2022-08-17T13:16:06.725Z,80.95
2022-08-17T13:18:47.061Z,80.77
2022-08-17T13:21:19.497Z,81.20
2022-08-17T13:24:17.640Z,81.84
2022-08-17T13:26:54.482Z,80.87
2022-08-17T13:29:25.143Z,80.80
2022-08-17T13:32:13.325Z,81.24
2022-08-17T13:35:12.574Z,81.38
2022-08-17T13:37:36.310Z,82.74
2022-08-17T13:40:09.138Z,82.58
2022-08-17T13:42:51.510Z,82.56
2022-08-17T13:45:38.910Z,81.92
2022-08-17T13:48:08.887Z,82.33
2022-08-17T13:50:46.808Z,82.32
2022-08-17T13:53:29.843Z,82.43
2022-08-17T13:56:03.405Z,81.28
2022-08-17T13:58:52.129Z,80.60
2022-08-17T14:01:53.569Z,81.28
2022-08-17T14:04:24.489Z,81.11
2022-08-17T14:07:09.667Z,81.61
2022-08-17T14:09:50.584Z,80.08
2022-08-17T14:12:21.711Z,80.38
2022-08-17T14:14:49.577Z,80.16
2022-08-17T14:17:16.371Z,79.96
2022-08-17T14:19:42.982Z,79.83
2022-08-17T14:22:36.888Z,80.74
2022-08-17T14:25:05.338Z,80.66
2022-08-17T14:27:51.730Z,82.54
2022-08-17T14:30:21.752Z,83.18
2022-08-17T14:32:56.443Z,82.19
2022-08-17T14:35:24.592Z,81.86
2022-08-17T14:37:52.567Z,81.64
2022-08-17T14:40:20.863Z,81.89
2022-08-17T14:42:48.192Z,80.48
2022-08-17T14:45:31.908Z,80.38
2022-08-17T14:48:00.344Z,80.81
2022-08-17T14:50:27.215Z,80.63
2022-08-17T14:52:56.044Z,81.13
2022-08-17T14:55:24.963Z,81.31
2022-08-17T14:57:51.759Z,80.80
2022-08-17T15:00:18.677Z,82.26
2022-08-17T15:02:53.893Z,81.95
2022-08-17T15:05:24.571Z,81.89
2022-08-17T15:07:53.616Z,81.52
2022-08-17T15:10:20.652Z,81.56
2022-08-17T15:12:47.297Z,81.12
2022-08-17T15:15:16.041Z,80.24
2022-08-17T15:17:44.353Z,80.56
2022-08-17T15:20:19.137Z,80.46
2022-08-17T15:22:49.897Z,80.01
2022-08-17T15:25:19.022Z,81.14
2022-08-17T15:27:45.646Z,81.03
2022-08-17T15:30:13.147Z,81.81
2022-08-17T15:32:41.296Z,81.26
2022-08-17T15:35:18.025Z,81.17
2022-08-17T15:37:45.165Z,80.71
2022-08-17T15:40:12.487Z,79.62
2022-08-17T15:42:40.399Z,79.82
2022-08-17T15:45:11.029Z,80.75
2022-08-17T15:47:37.861Z,81.05
2022-08-17T15:50:07.221Z,81.34
2022-08-17T15:52:40.340Z,80.76
2022-08-17T15:55:37.345Z,81.51
2022-08-17T15:58:57.131Z,81.58
2022-08-17T16:03:13.420Z,80.34
2022-08-17T16:04:50.583Z,81.93
2022-08-17T16:07:41.116Z,81.63
2022-08-17T16:10:19.266Z,81.37
2022-08-17T16:12:50.485Z,80.23
2022-08-17T16:15:18.464Z,80.57
2022-08-17T16:17:45.018Z,80.77
2022-08-17T16:20:19.682Z,80.43
2022-08-17T16:22:48.474Z,80.55
2022-08-17T16:25:19.025Z,81.28
2022-08-17T16:27:48.504Z,81.10
2022-08-17T16:30:17.577Z,81.41
2022-08-17T16:32:45.711Z,81.37
2022-08-17T16:35:16.193Z,81.96
2022-08-17T16:37:45.480Z,81.61
2022-08-17T16:40:14.546Z,82.21
2022-08-17T16:42:42.882Z,82.40
2022-08-17T16:45:17.034Z,82.44
2022-08-17T16:47:43.881Z,83.08
2022-08-17T16:50:12.805Z,82.53
2022-08-17T16:52:39.527Z,82.97
2022-08-17T16:55:09.563Z,83.00
2022-08-17T16:57:47.550Z,82.53
2022-08-17T17:00:19.456Z,83.28
2022-08-17T17:02:48.083Z,82.78
2022-08-17T17:05:33.261Z,82.26
2022-08-17T17:08:04.140Z,82.36
2022-08-17T17:10:44.631Z,82.70
2022-08-17T17:13:20.844Z,83.39
2022-08-17T17:16:00.126Z,84.17
2022-08-17T17:18:39.245Z,83.19
2022-08-17T17:21:11.835Z,83.72
2022-08-17T17:23:50.153Z,84.25
2022-08-17T17:26:22.989Z,83.95
2022-08-17T17:29:09.781Z,83.87
2022-08-17T17:31:44.486Z,83.45
2022-08-17T17:34:16.221Z,83.79
2022-08-17T17:37:01.592Z,83.86
2022-08-17T17:39:49.999Z,84.21
2022-08-17T17:42:20.563Z,84.30
2022-08-17T17:44:55.159Z,83.57
2022-08-17T17:47:21.909Z,84.59
2022-08-17T17:49:48.751Z,85.46
2022-08-17T17:52:36.316Z,84.10
2022-08-17T17:55:22.998Z,85.20
2022-08-17T17:57:57.359Z,84.98
2022-08-17T18:00:29.883Z,85.82
2022-08-17T18:03:24.531Z,84.45
2022-08-17T18:06:13.120Z,85.10
2022-08-17T18:08:52.818Z,84.59
2022-08-17T18:11:24.475Z,84.98
2022-08-17T18:14:14.432Z,84.95
2022-08-17T18:16:43.390Z,85.28
2022-08-17T18:19:15.779Z,85.43
2022-08-17T18:21:46.389Z,85.17
2022-08-17T18:24:13.577Z,84.85
2022-08-17T18:26:54.047Z,85.07
2022-08-17T18:29:27.713Z,85.08
2022-08-17T18:32:24.378Z,84.59
2022-08-17T18:35:14.358Z,85.05
2022-08-17T18:37:45.037Z,84.76
2022-08-17T18:40:17.828Z,85.54
2022-08-17T18:42:57.474Z,86.28
2022-08-17T18:45:41.147Z,86.62
2022-08-17T18:48:30.326Z,86.99
2022-08-17T18:51:35.732Z,86.50
2022-08-17T18:54:16.937Z,86.84
2022-08-17T18:56:49.375Z,86.73
2022-08-17T18:59:35.279Z,86.87
2022-08-17T19:02:28.268Z,86.55
2022-08-17T19:05:22.910Z,86.38
2022-08-17T19:07:49.644Z,86.62
2022-08-17T19:10:28.254Z,86.75
2022-08-17T19:13:23.999Z,86.64
2022-08-17T19:16:17.655Z,87.20
2022-08-17T19:18:53.177Z,87.17
2022-08-17T19:21:40.736Z,87.22
2022-08-17T19:24:25.138Z,87.13
2022-08-17T19:26:56.965Z,87.35
2022-08-17T19:29:38.479Z,86.76
2022-08-17T19:32:07.871Z,86.42
2022-08-17T19:34:36.465Z,86.27
2022-08-17T19:37:09.619Z,86.70
2022-08-17T19:40:24.499Z,86.64
2022-08-17T19:43:27.241Z,86.28
2022-08-17T19:46:17.484Z,86.42
2022-08-17T19:49:06.761Z,86.20
2022-08-17T19:51:41.635Z,86.27
2022-08-17T19:54:15.075Z,86.34
2022-08-17T19:57:05.173Z,85.52
2022-08-17T19:59:56.882Z,85.73
2022-08-17T20:02:32.732Z,85.72
2022-08-17T20:05:20.247Z,84.97
2022-08-17T20:08:02.321Z,85.31
2022-08-17T20:10:41.434Z,84.33
2022-08-17T20:13:11.288Z,85.07
2022-08-17T20:15:42.201Z,85.20
2022-08-17T20:18:31.901Z,84.81
2022-08-17T20:21:03.109Z,85.04
2022-08-17T20:23:50.191Z,85.63
2022-08-17T20:26:58.220Z,85.50
2022-08-17T20:29:36.811Z,85.23
2022-08-17T20:32:17.755Z,85.41
2022-08-17T20:34:47.127Z,84.80
2022-08-17T20:37:13.625Z,85.26
2022-08-17T20:39:45.383Z,85.73
2022-08-17T20:42:12.596Z,85.79
2022-08-17T20:44:41.210Z,85.45
2022-08-17T20:47:27.385Z,85.69
2022-08-17T20:50:05.480Z,86.14
2022-08-17T20:52:47.065Z,86.14
2022-08-17T20:55:35.530Z,85.77
2022-08-17T20:58:25.097Z,85.85
2022-08-17T21:00:57.210Z,85.66
2022-08-17T21:03:23.929Z,86.34
2022-08-17T21:06:02.948Z,86.14
2022-08-17T21:08:58.890Z,86.06
2022-08-17T21:11:59.943Z,86.43
2022-08-17T21:14:52.162Z,86.39
2022-08-17T21:17:38.113Z,86.45
2022-08-17T21:20:26.427Z,86.96
2022-08-17T21:23:19.688Z,86.39
2022-08-17T21:25:58.202Z,85.83
2022-08-17T21:29:31.376Z,86.29
2022-08-17T21:31:59.644Z,86.53
2022-08-17T21:35:01.435Z,86.92
2022-08-17T21:37:34.829Z,86.18
2022-08-17T21:40:25.972Z,86.03
2022-08-17T21:43:32.871Z,86.35
2022-08-17T21:46:05.288Z,86.18
2022-08-17T21:48:42.900Z,86.01
2022-08-17T21:51:19.979Z,85.13
2022-08-17T21:53:52.734Z,85.38
2022-08-17T21:56:26.231Z,85.61
2022-08-17T21:59:06.611Z,85.92
2022-08-17T22:01:39.509Z,85.13
2022-08-17T22:04:26.666Z,85.18
2022-08-17T22:06:57.210Z,84.98
2022-08-17T22:09:43.115Z,85.12
2022-08-17T22:12:22.009Z,85.66
2022-08-17T22:15:05.863Z,85.09
2022-08-17T22:17:41.214Z,85.68
2022-08-17T22:20:15.833Z,85.71
2022-08-17T22:23:04.151Z,85.87
2022-08-17T22:25:33.917Z,85.11
2022-08-17T22:28:02.789Z,85.36
2022-08-17T22:30:33.114Z,86.20
2022-08-17T22:33:20.790Z,85.73
2022-08-17T22:35:47.947Z,85.13
2022-08-17T22:38:20.646Z,85.69
2022-08-17T22:40:52.570Z,85.56
2022-08-17T22:43:26.068Z,85.39
2022-08-17T22:45:56.638Z,85.41
2022-08-17T22:48:27.226Z,85.85
2022-08-17T22:51:12.465Z,86.20
2022-08-17T22:54:05.994Z,86.68
2022-08-17T22:56:51.802Z,86.50
2022-08-17T22:59:52.124Z,87.03
2022-08-17T23:02:28.614Z,86.37
2022-08-17T23:05:16.699Z,86.64
2022-08-17T23:07:46.089Z,86.73
2022-08-17T23:10:13.941Z,86.06
2022-08-17T23:12:40.882Z,85.71
2022-08-17T23:15:18.974Z,85.87
2022-08-17T23:17:45.952Z,85.98
2022-08-17T23:20:15.284Z,86.00
2022-08-17T23:22:44.665Z,85.93
2022-08-17T23:25:28.685Z,85.95
2022-08-17T23:28:01.822Z,86.07
2022-08-17T23:30:31.198Z,86.23
2022-08-17T23:33:05.973Z,86.28
2022-08-17T23:35:39.574Z,86.37
2022-08-17T23:38:11.704Z,86.16
2022-08-17T23:40:39.954Z,84.95
2022-08-17T23:43:23.881Z,85.51
2022-08-17T23:45:53.612Z,85.98
2022-08-17T23:48:36.062Z,85.57
2022-08-17T23:51:19.083Z,85.83
2022-08-17T23:53:48.653Z,86.01
2022-08-17T23:56:24.206Z,86.26
2022-08-17T23:58:51.429Z,86.18
